Time;durP1;ratioP1;P1;durP2;ratioP2;P2;SDS_P1;SDS_P2;PMS_P1;PMS_P2;Temp;Humidity;BMP_temperature;BMP_pressure;BME280_temperature;BME280_humidity;BME280_pressure;Samples;Min_cycle;Max_cycle;Signal;HPM_P1;HPM_P2
2024/01/10 00:00:47;;;;;;;14.07;13.47;;;20.30;36.30;;;;;;5015204;28;20474;-66
2024/01/10 00:03:14;;;;;;;14.20;13.60;;;20.30;36.20;;;;;;5015333;28;20494;-65
2024/01/10 00:05:40;;;;;;;12.97;12.27;;;20.30;36.30;;;;;;5015375;28;20477;-66
2024/01/10 00:08:09;;;;;;;12.40;12.00;;;20.30;36.40;;;;;;5005472;28;20470;-65
2024/01/10 00:10:36;;;;;;;13.13;12.63;;;20.20;36.30;;;;;;5006638;28;20473;-66
2024/01/10 00:13:03;;;;;;;13.80;13.33;;;20.20;36.30;;;;;;5014987;28;20466;-64
2024/01/10 00:15:30;;;;;;;13.20;12.63;;;20.20;36.30;;;;;;5015118;28;20509;-64
2024/01/10 00:17:57;;;;;;;13.20;12.70;;;20.20;36.40;;;;;;5008486;28;20470;-64
2024/01/10 00:20:24;;;;;;;13.10;12.60;;;20.10;36.40;;;;;;5015058;28;20492;-64
2024/01/10 00:22:50;;;;;;;13.20;12.70;;;20.10;36.40;;;;;;5014824;28;20547;-64
2024/01/10 00:25:19;;;;;;;13.83;13.20;;;20.10;36.40;;;;;;5014979;28;20474;-65
2024/01/10 00:27:46;;;;;;;13.60;13.10;;;20.10;36.50;;;;;;5008477;28;20521;-64
2024/01/10 00:30:13;;;;;;;15.13;14.63;;;20.10;36.50;;;;;;5014916;28;20504;-64
2024/01/10 00:32:40;;;;;;;13.50;12.87;;;20.00;36.50;;;;;;5014934;28;20585;-64
2024/01/10 00:35:07;;;;;;;14.13;13.63;;;20.00;36.50;;;;;;5011072;28;20501;-64
2024/01/10 00:37:34;;;;;;;13.50;13.00;;;20.00;36.50;;;;;;5014744;28;20535;-65
2024/01/10 00:40:01;;;;;;;13.00;12.60;;;20.00;36.50;;;;;;5014824;28;20470;-64
2024/01/10 00:42:29;;;;;;;13.57;12.97;;;20.00;36.50;;;;;;5014503;28;20469;-64
2024/01/10 00:44:56;;;;;;;13.53;13.07;;;19.90;36.40;;;;;;5011200;28;20481;-65
2024/01/10 00:47:23;;;;;;;13.00;12.60;;;19.90;36.50;;;;;;5014591;28;20466;-64
2024/01/10 00:49:50;;;;;;;13.23;12.73;;;19.90;36.60;;;;;;5014459;28;20481;-64
2024/01/10 00:52:17;;;;;;;13.33;12.73;;;19.90;36.60;;;;;;5014198;28;20469;-64
2024/01/10 00:54:45;;;;;;;13.53;12.97;;;19.90;36.70;;;;;;5011369;28;20560;-66
2024/01/10 00:57:13;;;;;;;13.13;12.70;;;19.90;36.70;;;;;;4997941;28;20450;-65
2024/01/10 00:59:42;;;;;;;13.10;12.53;;;19.90;36.80;;;;;;5014537;28;20454;-65
2024/01/10 01:02:09;;;;;;;13.40;12.90;;;19.80;36.70;;;;;;5014180;28;20976;-65
2024/01/10 01:04:36;;;;;;;13.47;13.07;;;19.80;36.70;;;;;;5012740;28;20512;-65
2024/01/10 01:07:03;;;;;;;14.47;13.97;;;19.80;36.80;;;;;;5013078;28;21015;-65
2024/01/10 01:09:30;;;;;;;14.13;13.63;;;19.80;36.80;;;;;;5014493;28;20473;-64
2024/01/10 01:11:57;;;;;;;13.53;13.13;;;19.70;36.70;;;;;;5014014;28;20494;-64
2024/01/10 01:14:23;;;;;;;12.60;12.20;;;19.80;36.80;;;;;;5014097;28;20470;-64
2024/01/10 01:16:52;;;;;;;14.10;13.40;;;19.70;36.70;;;;;;5011426;28;20482;-65
2024/01/10 01:19:19;;;;;;;13.07;12.47;;;19.70;36.80;;;;;;5014206;28;20540;-65
2024/01/10 01:21:46;;;;;;;13.70;13.17;;;19.70;36.80;;;;;;5013799;28;20489;-64
2024/01/10 01:24:13;;;;;;;13.43;12.83;;;19.70;36.80;;;;;;4998170;28;20501;-65
2024/01/10 01:26:39;;;;;;;14.13;13.53;;;19.70;36.80;;;;;;5011663;28;20938;-65
2024/01/10 01:29:08;;;;;;;13.30;12.77;;;19.70;36.80;;;;;;5013921;28;20489;-66
2024/01/10 01:31:35;;;;;;;13.37;12.90;;;19.70;36.80;;;;;;5013699;28;21051;-65
2024/01/10 01:34:03;;;;;;;13.80;13.40;;;19.70;36.90;;;;;;5013626;28;20454;-64
2024/01/10 01:36:30;;;;;;;13.97;13.47;;;19.70;36.90;;;;;;5011540;28;20516;-64
2024/01/10 01:38:57;;;;;;;12.90;12.40;;;19.60;36.90;;;;;;5013645;28;20478;-64
2024/01/10 01:41:24;;;;;;;13.90;13.30;;;19.60;36.90;;;;;;5013517;28;20898;-64
2024/01/10 01:43:51;;;;;;;13.77;13.27;;;19.60;36.90;;;;;;5006010;28;20483;-65
2024/01/10 01:46:18;;;;;;;13.67;13.07;;;19.60;36.90;;;;;;5013708;28;20442;-65
2024/01/10 01:48:45;;;;;;;13.77;13.37;;;19.60;36.90;;;;;;5013646;28;20869;-65
2024/01/10 01:51:15;;;;;;;14.50;13.90;;;19.60;37.00;;;;;;4996974;28;20478;-64
2024/01/10 01:53:45;;;;;;;13.80;13.30;;;19.60;37.00;;;;;;5006838;28;20454;-64
2024/01/10 01:56:13;;;;;;;13.10;12.60;;;19.60;37.00;;;;;;5013166;28;20536;-64
2024/01/10 01:58:41;;;;;;;13.80;13.30;;;19.60;36.90;;;;;;5013474;28;20978;-64
2024/01/10 02:01:08;;;;;;;13.90;13.40;;;19.50;36.80;;;;;;5012903;28;20466;-65
2024/01/10 02:03:35;;;;;;;13.60;13.10;;;19.50;36.80;;;;;;5007883;28;20475;-65
2024/01/10 02:06:03;;;;;;;13.70;13.30;;;19.50;36.80;;;;;;5011593;28;20539;-66
2024/01/10 02:08:32;;;;;;;13.20;12.70;;;19.50;36.80;;;;;;5013176;28;20885;-64
2024/01/10 02:11:00;;;;;;;13.00;12.50;;;19.50;36.80;;;;;;5012866;28;20716;-64
2024/01/10 02:13:26;;;;;;;14.10;13.60;;;19.50;36.80;;;;;;5007097;28;20454;-66
2024/01/10 02:15:54;;;;;;;14.43;13.83;;;19.50;36.80;;;;;;5001672;28;20507;-66
2024/01/10 02:18:21;;;;;;;13.20;12.70;;;19.50;36.80;;;;;;5013119;28;20453;-66
2024/01/10 02:20:47;;;;;;;13.53;12.93;;;19.50;36.80;;;;;;5012786;28;20504;-66
2024/01/10 02:23:14;;;;;;;13.87;13.33;;;19.50;36.80;;;;;;4998600;28;20493;-65
2024/01/10 02:25:43;;;;;;;13.00;12.50;;;19.50;36.80;;;;;;5012737;28;20604;-66
2024/01/10 02:28:10;;;;;;;13.17;12.57;;;19.40;36.80;;;;;;5013029;28;20496;-66
2024/01/10 02:30:38;;;;;;;12.73;12.33;;;19.40;36.90;;;;;;5012721;28;20466;-65
2024/01/10 02:33:05;;;;;;;13.47;12.97;;;19.40;36.90;;;;;;5035589;22;20481;-65
2024/01/10 02:35:33;;;;;;;13.13;12.73;;;19.40;36.90;;;;;;5032259;28;20563;-64
2024/01/10 02:38:00;;;;;;;13.00;12.50;;;19.40;36.90;;;;;;5032455;28;20453;-64
2024/01/10 02:40:26;;;;;;;12.83;12.33;;;19.40;36.90;;;;;;5032317;28;20469;-64
2024/01/10 02:42:55;;;;;;;12.67;12.27;;;19.40;36.90;;;;;;5025042;28;20494;-64
2024/01/10 02:45:22;;;;;;;12.73;12.30;;;19.40;37.00;;;;;;5009670;28;20461;-64
2024/01/10 02:47:48;;;;;;;13.10;12.50;;;19.40;37.00;;;;;;5012611;28;20477;-65
2024/01/10 02:50:16;;;;;;;14.20;13.70;;;19.40;37.00;;;;;;4996471;28;20446;-64
2024/01/10 02:52:43;;;;;;;12.83;12.33;;;19.40;37.00;;;;;;5009866;28;20552;-64
2024/01/10 02:55:10;;;;;;;12.00;11.50;;;19.40;37.00;;;;;;5012363;28;21206;-64
2024/01/10 02:57:37;;;;;;;13.60;13.10;;;19.40;37.00;;;;;;5012324;28;20957;-64
2024/01/10 03:00:07;;;;;;;13.00;12.40;;;19.40;37.00;;;;;;5012162;28;20481;-65
2024/01/10 03:02:34;;;;;;;12.87;12.37;;;19.30;36.90;;;;;;5008257;28;20470;-65
2024/01/10 03:05:01;;;;;;;13.97;13.40;;;19.30;37.00;;;;;;5012055;28;20481;-64
2024/01/10 03:07:28;;;;;;;12.50;12.10;;;19.30;37.00;;;;;;5012257;28;20474;-65
2024/01/10 03:09:55;;;;;;;13.40;12.90;;;19.30;37.10;;;;;;5011937;28;20474;-64
2024/01/10 03:12:22;;;;;;;13.97;13.43;;;19.30;37.10;;;;;;5008554;28;20861;-64
2024/01/10 03:14:48;;;;;;;13.27;12.70;;;19.30;37.10;;;;;;5012183;28;20962;-64
2024/01/10 03:17:17;;;;;;;12.90;12.50;;;19.30;37.10;;;;;;5011841;28;20940;-64
2024/01/10 03:19:44;;;;;;;13.73;13.23;;;19.30;37.10;;;;;;5011885;28;20485;-64
2024/01/10 03:22:11;;;;;;;13.60;13.13;;;19.30;37.10;;;;;;5008304;28;20446;-64
2024/01/10 03:24:38;;;;;;;12.90;12.50;;;19.30;37.10;;;;;;5012040;28;20458;-65
2024/01/10 03:27:05;;;;;;;12.93;12.43;;;19.30;37.10;;;;;;5011835;28;20466;-64
2024/01/10 03:29:32;;;;;;;14.30;13.70;;;19.30;37.10;;;;;;5011858;28;20926;-65
2024/01/10 03:31:59;;;;;;;12.97;12.47;;;19.30;37.10;;;;;;5008487;28;20482;-64
2024/01/10 03:34:27;;;;;;;13.40;12.90;;;19.30;37.10;;;;;;5011705;28;20494;-64
2024/01/10 03:36:54;;;;;;;12.80;12.40;;;19.30;37.10;;;;;;5011601;28;20557;-65
2024/01/10 03:39:21;;;;;;;13.10;12.70;;;19.30;37.10;;;;;;5011801;28;20874;-65
2024/01/10 03:41:48;;;;;;;14.03;13.50;;;19.30;37.10;;;;;;5009255;28;20442;-64
2024/01/10 03:44:15;;;;;;;13.37;12.77;;;19.30;37.10;;;;;;5011450;28;20493;-65
2024/01/10 03:46:42;;;;;;;12.90;12.50;;;19.30;37.10;;;;;;5011713;28;20477;-63
2024/01/10 03:49:08;;;;;;;13.43;12.70;;;19.30;37.10;;;;;;5011462;28;20477;-64
2024/01/10 03:51:37;;;;;;;14.30;13.80;;;19.30;37.20;;;;;;5003333;28;20481;-64
2024/01/10 03:54:04;;;;;;;14.77;14.17;;;19.30;37.20;;;;;;5011494;28;20470;-64
2024/01/10 03:56:31;;;;;;;14.50;14.00;;;19.30;37.30;;;;;;5011588;28;20506;-64
2024/01/10 03:58:58;;;;;;;14.10;13.50;;;19.20;37.20;;;;;;5011469;28;20477;-64
2024/01/10 04:01:25;;;;;;;13.90;13.40;;;19.20;37.20;;;;;;5003527;28;20489;-64
2024/01/10 04:03:52;;;;;;;13.70;13.20;;;19.20;37.30;;;;;;5011602;28;20500;-64
2024/01/10 04:06:19;;;;;;;13.93;13.43;;;19.20;37.30;;;;;;4995990;28;20562;-64
2024/01/10 04:08:47;;;;;;;13.53;13.03;;;19.20;37.30;;;;;;5011494;28;20446;-65
2024/01/10 04:11:14;;;;;;;14.67;13.83;;;19.20;37.30;;;;;;5003424;28;20469;-64
2024/01/10 04:13:41;;;;;;;13.20;12.70;;;19.20;37.30;;;;;;5011636;28;20490;-65
2024/01/10 04:16:08;;;;;;;13.50;13.00;;;19.20;37.30;;;;;;5011217;28;20513;-64
2024/01/10 04:18:35;;;;;;;13.10;12.47;;;19.20;37.40;;;;;;5011397;28;20496;-64
2024/01/10 04:21:02;;;;;;;12.73;12.33;;;19.20;37.40;;;;;;5003709;28;20458;-63
2024/01/10 04:23:30;;;;;;;14.37;13.77;;;19.20;37.40;;;;;;5011300;28;20489;-65
2024/01/10 04:25:58;;;;;;;14.27;13.77;;;19.20;37.40;;;;;;5011260;28;20933;-64
2024/01/10 04:28:25;;;;;;;13.77;13.27;;;19.20;37.40;;;;;;5011406;28;20474;-64
2024/01/10 04:30:52;;;;;;;14.00;13.40;;;19.20;37.40;;;;;;5004171;28;20482;-64
2024/01/10 04:33:19;;;;;;;14.43;13.83;;;19.20;37.40;;;;;;5005009;28;20497;-64
2024/01/10 04:35:46;;;;;;;13.57;13.13;;;19.20;37.40;;;;;;5014903;28;20465;-64
2024/01/10 04:38:13;;;;;;;14.67;13.97;;;19.20;37.40;;;;;;5014811;28;20473;-65
2024/01/10 04:40:40;;;;;;;13.93;13.33;;;19.20;37.30;;;;;;5009636;28;20481;-64
2024/01/10 04:43:08;;;;;;;13.40;12.90;;;19.20;37.40;;;;;;5013080;28;20545;-64
2024/01/10 04:45:35;;;;;;;14.00;13.47;;;19.20;37.40;;;;;;5014725;28;20478;-64
2024/01/10 04:48:02;;;;;;;14.83;14.13;;;19.20;37.40;;;;;;5014581;28;20504;-65
2024/01/10 04:50:29;;;;;;;14.27;13.77;;;19.20;37.40;;;;;;5011311;28;20992;-64
2024/01/10 04:52:56;;;;;;;14.23;13.73;;;19.20;37.40;;;;;;5011277;28;20992;-64
2024/01/10 04:55:22;;;;;;;14.10;13.50;;;19.20;37.40;;;;;;5014451;28;20978;-62
2024/01/10 04:57:49;;;;;;;13.87;13.20;;;19.20;37.40;;;;;;5014496;28;21072;-64
2024/01/10 05:00:18;;;;;;;13.90;13.40;;;19.10;37.30;;;;;;5010368;28;21222;-64
2024/01/10 05:02:45;;;;;;;13.60;12.90;;;19.10;37.30;;;;;;5014524;28;20852;-64
2024/01/10 05:05:12;;;;;;;15.73;15.23;;;19.10;37.30;;;;;;5014307;28;20446;-64
2024/01/10 05:07:39;;;;;;;14.53;14.03;;;19.10;37.30;;;;;;5014252;28;20470;-63
2024/01/10 05:10:06;;;;;;;15.87;15.17;;;19.10;37.30;;;;;;5010453;28;20473;-64
2024/01/10 05:12:33;;;;;;;14.70;14.17;;;19.10;37.30;;;;;;5014199;28;20477;-64
2024/01/10 05:15:00;;;;;;;16.20;15.50;;;19.10;37.30;;;;;;5013993;28;20473;-65
2024/01/10 05:17:28;;;;;;;14.90;14.40;;;19.10;37.30;;;;;;5013976;28;20481;-64
2024/01/10 05:19:55;;;;;;;15.07;14.43;;;19.10;37.30;;;;;;5010663;28;21355;-64
2024/01/10 05:22:22;;;;;;;16.63;15.97;;;19.10;37.30;;;;;;4998369;28;20484;-65
2024/01/10 05:24:49;;;;;;;15.80;15.10;;;19.10;37.30;;;;;;5013999;28;20448;-64
2024/01/10 05:27:16;;;;;;;14.77;14.27;;;19.10;37.30;;;;;;5013895;28;20472;-64
2024/01/10 05:29:43;;;;;;;15.00;14.40;;;19.10;37.30;;;;;;5010679;28;20470;-64
2024/01/10 05:32:10;;;;;;;14.23;13.73;;;19.10;37.30;;;;;;5013830;28;20529;-65
2024/01/10 05:34:38;;;;;;;16.80;16.20;;;19.10;37.30;;;;;;5013624;28;20480;-64
2024/01/10 05:37:05;;;;;;;14.57;13.87;;;19.10;37.20;;;;;;5013489;28;20564;-64
2024/01/10 05:39:32;;;;;;;15.97;15.37;;;19.10;37.20;;;;;;5010856;28;20981;-64
2024/01/10 05:41:59;;;;;;;15.07;14.47;;;19.10;37.20;;;;;;5013477;28;20981;-64
2024/01/10 05:44:26;;;;;;;15.57;15.03;;;19.10;37.20;;;;;;5012976;28;20501;-64
2024/01/10 05:46:52;;;;;;;13.60;13.10;;;19.10;37.30;;;;;;5013531;28;20474;-65
2024/01/10 05:49:19;;;;;;;14.27;13.70;;;19.10;37.20;;;;;;5010920;28;20496;-64
2024/01/10 05:51:48;;;;;;;15.57;14.87;;;19.10;37.20;;;;;;5013359;28;20875;-65
2024/01/10 05:54:15;;;;;;;15.80;15.20;;;19.10;37.20;;;;;;5013208;28;21000;-64
2024/01/10 05:56:42;;;;;;;15.80;15.30;;;19.10;37.20;;;;;;5013267;28;20488;-65
2024/01/10 05:59:10;;;;;;;15.83;15.23;;;19.10;37.20;;;;;;5005403;28;20961;-65
2024/01/10 06:01:38;;;;;;;15.00;14.40;;;19.10;37.20;;;;;;5013252;28;20450;-64
2024/01/10 06:04:05;;;;;;;14.70;14.20;;;19.10;37.30;;;;;;5013036;28;20466;-64
2024/01/10 06:06:33;;;;;;;16.30;15.50;;;19.10;37.20;;;;;;5008071;28;20450;-64
2024/01/10 06:09:01;;;;;;;15.33;14.83;;;19.10;37.30;;;;;;5007575;28;20442;-64
2024/01/10 06:11:29;;;;;;;14.67;14.13;;;19.10;37.30;;;;;;5012909;28;20478;-65
2024/01/10 06:13:57;;;;;;;14.40;13.90;;;19.10;37.30;;;;;;5012906;28;20528;-64
2024/01/10 06:16:24;;;;;;;14.13;13.63;;;19.10;37.30;;;;;;4992864;28;20496;-64
2024/01/10 06:18:51;;;;;;;15.53;14.93;;;19.10;37.30;;;;;;5013282;28;20449;-65
2024/01/10 06:21:18;;;;;;;14.03;13.43;;;19.10;37.30;;;;;;5012773;28;20474;-64
2024/01/10 06:23:44;;;;;;;14.40;13.90;;;19.10;37.30;;;;;;5012717;28;20976;-64
2024/01/10 06:26:13;;;;;;;16.43;15.73;;;19.10;37.30;;;;;;5005739;28;20977;-65
2024/01/10 06:28:40;;;;;;;16.80;16.20;;;19.10;37.30;;;;;;4997287;28;20487;-64
2024/01/10 06:31:07;;;;;;;16.03;15.37;;;19.10;37.30;;;;;;5010223;28;20964;-64
2024/01/10 06:33:33;;;;;;;14.67;14.07;;;19.10;37.30;;;;;;5012533;28;20504;-65
2024/01/10 06:36:00;;;;;;;15.60;14.80;;;19.00;37.20;;;;;;5008813;28;20486;-63
2024/01/10 06:38:27;;;;;;;16.10;15.60;;;19.10;37.30;;;;;;5012850;28;20505;-64
2024/01/10 06:40:54;;;;;;;16.50;15.70;;;19.00;37.20;;;;;;5012515;28;20473;-64
2024/01/10 06:43:23;;;;;;;14.97;14.40;;;19.10;37.30;;;;;;5012298;28;20489;-65
2024/01/10 06:45:50;;;;;;;15.47;14.87;;;19.10;37.30;;;;;;5010007;28;20446;-65
2024/01/10 06:48:18;;;;;;;17.20;16.47;;;19.00;37.30;;;;;;5011448;28;20474;-64
2024/01/10 06:50:45;;;;;;;16.00;15.30;;;19.00;37.30;;;;;;5012342;28;20446;-64
2024/01/10 06:53:13;;;;;;;14.70;14.20;;;19.00;37.30;;;;;;5012167;28;20497;-65
2024/01/10 06:55:40;;;;;;;16.63;15.80;;;19.10;37.40;;;;;;5011401;28;20451;-64
2024/01/10 06:58:07;;;;;;;16.40;15.77;;;19.00;37.30;;;;;;5009563;28;20505;-63
2024/01/10 07:00:38;;;;;;;16.17;15.50;;;19.10;37.40;;;;;;5012202;28;20473;-64
2024/01/10 07:03:05;;;;;;;16.50;15.80;;;19.10;37.50;;;;;;5011964;28;20512;-64
2024/01/10 07:05:32;;;;;;;16.70;16.00;;;19.00;37.40;;;;;;5012265;28;20446;-64
2024/01/10 07:07:59;;;;;;;16.20;15.50;;;19.00;37.40;;;;;;5008243;28;20445;-64
2024/01/10 07:10:27;;;;;;;17.00;16.40;;;19.10;37.60;;;;;;4996163;28;20477;-65
2024/01/10 07:12:54;;;;;;;14.93;14.43;;;19.00;37.50;;;;;;5011859;28;21023;-64
2024/01/10 07:15:21;;;;;;;14.80;14.17;;;19.00;37.70;;;;;;5003518;28;20492;-63
2024/01/10 07:17:50;;;;;;;15.57;14.87;;;19.10;37.80;;;;;;5012059;28;20506;-65
2024/01/10 07:20:17;;;;;;;15.60;14.80;;;19.00;37.70;;;;;;5011831;28;20472;-64
2024/01/10 07:22:45;;;;;;;16.73;15.93;;;19.10;37.70;;;;;;5011719;28;20494;-65
2024/01/10 07:25:14;;;;;;;17.97;17.07;;;19.10;37.70;;;;;;5003654;28;20443;-64
2024/01/10 07:27:41;;;;;;;17.27;16.30;;;19.10;38.00;;;;;;5011931;28;21166;-65
2024/01/10 07:30:13;;;;;;;16.93;15.93;;;19.20;38.40;;;;;;5011654;28;20477;-64
2024/01/10 07:32:40;;;;;;;18.10;16.67;;;19.20;39.20;;;;;;5011579;28;20454;-64
2024/01/10 07:35:10;;;;;;;18.40;16.87;;;19.20;40.70;;;;;;5003762;28;20449;-63
2024/01/10 07:37:37;;;;;;;18.60;17.03;;;19.20;41.20;;;;;;5010419;28;20488;-63
2024/01/10 07:40:06;;;;;;;20.97;17.20;;;19.20;41.60;;;;;;5007037;28;20484;-67
2024/01/10 07:42:33;;;;;;;17.47;16.23;;;19.20;42.00;;;;;;5011553;28;20438;-67
2024/01/10 07:45:01;;;;;;;20.03;18.37;;;19.20;43.40;;;;;;5000375;28;20442;-66
2024/01/10 07:47:28;;;;;;;18.37;17.43;;;19.30;43.10;;;;;;5011738;28;20448;-66
2024/01/10 07:49:55;;;;;;;19.70;18.30;;;19.30;42.70;;;;;;5011652;28;20474;-67
2024/01/10 07:52:23;;;;;;;18.20;16.67;;;19.40;43.00;;;;;;5011463;28;20478;-65
2024/01/10 07:54:50;;;;;;;18.03;16.70;;;19.40;42.30;;;;;;5011383;28;20470;-65
2024/01/10 07:57:18;;;;;;;17.37;16.20;;;19.40;42.00;;;;;;5011278;28;20611;-67
2024/01/10 07:59:45;;;;;;;19.57;18.57;;;19.50;41.80;;;;;;5011480;28;20530;-66
2024/01/10 08:02:12;;;;;;;19.87;18.10;;;19.50;41.60;;;;;;5011239;28;20478;-67
2024/01/10 08:04:39;;;;;;;18.93;17.67;;;19.50;41.50;;;;;;5011364;28;20493;-66
2024/01/10 08:07:06;;;;;;;19.40;17.53;;;19.50;41.30;;;;;;5012891;28;20484;-66
2024/01/10 08:09:34;;;;;;;17.20;16.20;;;19.50;41.20;;;;;;5015217;28;20474;-66
2024/01/10 08:12:01;;;;;;;19.00;17.47;;;19.60;41.10;;;;;;5015116;28;20892;-66
2024/01/10 08:14:28;;;;;;;19.37;17.80;;;19.60;41.00;;;;;;5015103;28;20498;-65
2024/01/10 08:16:57;;;;;;;18.13;17.10;;;19.60;40.90;;;;;;5015151;28;20492;-66
2024/01/10 08:19:25;;;;;;;19.27;17.47;;;19.50;40.70;;;;;;5014965;28;20524;-66
2024/01/10 08:21:52;;;;;;;18.40;17.50;;;19.60;40.70;;;;;;5014969;28;20438;-66
2024/01/10 08:24:19;;;;;;;19.93;18.83;;;19.60;40.60;;;;;;5014898;28;21031;-66
2024/01/10 08:26:49;;;;;;;19.33;18.43;;;19.60;40.50;;;;;;5014804;28;20856;-65
2024/01/10 08:29:16;;;;;;;18.87;18.17;;;19.60;40.40;;;;;;5014888;28;20438;-66
2024/01/10 08:31:44;;;;;;;16.83;15.77;;;19.60;40.30;;;;;;5014773;28;20949;-66
2024/01/10 08:34:11;;;;;;;18.27;17.20;;;19.60;40.20;;;;;;5075763;22;20494;-64
2024/01/10 08:36:38;;;;;;;18.83;17.83;;;19.60;40.10;;;;;;5042858;28;20469;-63
2024/01/10 08:39:06;;;;;;;17.90;16.43;;;19.60;40.10;;;;;;5042764;28;20504;-63
2024/01/10 08:41:33;;;;;;;17.80;16.90;;;19.60;40.00;;;;;;5046052;28;20506;-62
2024/01/10 08:44:02;;;;;;;18.30;17.60;;;19.70;40.00;;;;;;5038330;28;20461;-63
2024/01/10 08:46:29;;;;;;;16.93;16.23;;;19.70;39.90;;;;;;5018049;28;20449;-62
2024/01/10 08:48:56;;;;;;;17.73;16.90;;;19.70;39.80;;;;;;5034333;28;20479;-63
2024/01/10 08:51:23;;;;;;;19.10;18.20;;;19.70;39.80;;;;;;5034049;28;20476;-64
2024/01/10 08:53:49;;;;;;;17.67;17.03;;;19.70;39.70;;;;;;5034193;28;20499;-62
2024/01/10 08:56:17;;;;;;;17.57;16.83;;;19.70;39.60;;;;;;5034043;28;20939;-63
2024/01/10 08:58:43;;;;;;;19.47;18.67;;;19.70;39.60;;;;;;5034185;28;20477;-63
2024/01/10 09:01:12;;;;;;;18.50;17.50;;;19.70;39.50;;;;;;5033935;28;20473;-63
2024/01/10 09:03:39;;;;;;;20.37;19.47;;;19.70;39.50;;;;;;5034008;28;20534;-62
2024/01/10 09:06:07;;;;;;;17.13;16.30;;;19.70;39.40;;;;;;5033851;28;20473;-63
2024/01/10 09:08:34;;;;;;;18.60;17.80;;;19.80;39.50;;;;;;5033924;28;20441;-63
2024/01/10 09:11:01;;;;;;;17.73;16.93;;;19.80;39.50;;;;;;5033758;28;20993;-62
2024/01/10 09:13:28;;;;;;;18.70;17.70;;;19.80;39.40;;;;;;5033706;28;20485;-63
2024/01/10 09:15:55;;;;;;;16.30;15.70;;;19.80;39.90;;;;;;5033817;28;20520;-63
2024/01/10 09:18:23;;;;;;;18.00;17.10;;;19.80;39.30;;;;;;5032755;28;20547;-63
2024/01/10 09:20:50;;;;;;;18.27;17.53;;;19.80;39.30;;;;;;5033613;28;20465;-64
2024/01/10 09:23:17;;;;;;;19.80;18.70;;;19.80;39.20;;;;;;5033509;28;20466;-62
2024/01/10 09:25:44;;;;;;;17.37;16.60;;;19.90;39.30;;;;;;5033580;28;20469;-62
2024/01/10 09:28:11;;;;;;;17.53;16.67;;;19.90;39.30;;;;;;5033418;28;20472;-62
2024/01/10 09:30:37;;;;;;;17.70;16.83;;;19.90;39.20;;;;;;5033457;28;20524;-64
2024/01/10 09:33:05;;;;;;;18.43;17.63;;;19.90;39.20;;;;;;5033276;28;21114;-63
2024/01/10 09:35:33;;;;;;;19.40;18.53;;;19.90;39.20;;;;;;5017397;28;20998;-64
2024/01/10 09:38:00;;;;;;;17.40;16.70;;;19.90;39.20;;;;;;5033338;28;20504;-63
2024/01/10 09:40:29;;;;;;;16.90;16.00;;;19.90;39.10;;;;;;5033151;28;20448;-62
2024/01/10 09:42:56;;;;;;;16.77;16.00;;;19.90;39.10;;;;;;5033124;28;20894;-62
2024/01/10 09:45:24;;;;;;;17.30;16.40;;;20.00;39.10;;;;;;5033118;28;20480;-63
2024/01/10 09:47:55;;;;;;;17.13;16.33;;;19.90;39.00;;;;;;5033161;28;20445;-64
2024/01/10 09:50:23;;;;;;;17.60;16.80;;;19.90;39.00;;;;;;5033047;28;20921;-63
2024/01/10 09:52:53;;;;;;;17.80;16.90;;;20.00;39.00;;;;;;5033133;28;20475;-62
2024/01/10 09:55:22;;;;;;;17.60;16.80;;;20.00;39.00;;;;;;5033261;28;20483;-63
2024/01/10 09:57:49;;;;;;;17.70;17.00;;;20.00;39.00;;;;;;5032898;28;20508;-64
2024/01/10 10:00:17;;;;;;;17.37;16.77;;;20.00;39.00;;;;;;5032860;28;20441;-64
2024/01/10 10:02:46;;;;;;;17.73;17.03;;;20.00;38.90;;;;;;5032871;28;20456;-65
2024/01/10 10:05:15;;;;;;;18.10;17.30;;;20.10;39.00;;;;;;5032755;28;20479;-63
2024/01/10 10:07:47;;;;;;;18.37;17.67;;;20.00;39.40;;;;;;5032824;28;20440;-65
2024/01/10 10:10:15;;;;;;;19.33;18.50;;;20.10;38.90;;;;;;5032520;28;20979;-64
2024/01/10 10:12:43;;;;;;;19.10;18.30;;;20.00;38.90;;;;;;5032741;28;20473;-64
2024/01/10 10:15:13;;;;;;;18.50;17.70;;;20.10;38.90;;;;;;5032507;28;20539;-66
2024/01/10 10:17:46;;;;;;;18.10;17.40;;;20.00;38.80;;;;;;5032588;28;20488;-62
2024/01/10 10:20:14;;;;;;;17.33;16.73;;;20.10;38.80;;;;;;5032408;28;20452;-63
2024/01/10 10:22:58;;;;;;;18.70;17.90;;;20.10;38.80;;;;;;5032539;28;20450;-62
2024/01/10 10:25:29;;;;;;;17.07;16.40;;;20.10;38.80;;;;;;5032445;28;20445;-63
2024/01/10 10:27:56;;;;;;;15.97;15.27;;;20.10;38.80;;;;;;5032520;28;20464;-63
2024/01/10 10:30:23;;;;;;;17.43;16.63;;;20.10;38.80;;;;;;5031216;28;20886;-62
2024/01/10 10:32:50;;;;;;;16.57;15.93;;;20.10;38.70;;;;;;5032047;28;20846;-62
2024/01/10 10:35:17;;;;;;;16.10;15.57;;;20.10;38.70;;;;;;5032250;28;20479;-63
2024/01/10 10:37:44;;;;;;;16.63;16.03;;;20.10;38.70;;;;;;5032130;28;20481;-63
2024/01/10 10:40:13;;;;;;;15.90;15.30;;;20.10;38.80;;;;;;5032067;28;20507;-63
2024/01/10 10:42:45;;;;;;;17.00;16.40;;;20.10;38.70;;;;;;5032106;28;20449;-63
2024/01/10 10:45:17;;;;;;;17.70;16.90;;;20.20;38.70;;;;;;5031968;28;20438;-63
2024/01/10 10:47:48;;;;;;;17.63;16.73;;;20.10;38.60;;;;;;5032124;28;20437;-64
2024/01/10 10:50:22;;;;;;;16.90;16.20;;;20.20;38.70;;;;;;5031955;28;20459;-61
2024/01/10 10:52:50;;;;;;;17.00;16.30;;;20.20;38.60;;;;;;5031842;28;20507;-64
2024/01/10 10:55:18;;;;;;;17.60;16.97;;;20.20;38.60;;;;;;5031800;28;20473;-63
2024/01/10 10:57:48;;;;;;;18.13;17.43;;;20.20;38.60;;;;;;5031775;28;20901;-63
2024/01/10 11:00:17;;;;;;;16.63;16.00;;;20.20;38.60;;;;;;5031743;28;20473;-62
2024/01/10 11:02:45;;;;;;;17.37;16.77;;;20.20;38.60;;;;;;5031776;28;20928;-63
2024/01/10 11:05:12;;;;;;;17.70;17.00;;;20.20;38.50;;;;;;5031869;28;20484;-63
2024/01/10 11:07:40;;;;;;;17.23;16.53;;;20.20;38.50;;;;;;5031660;28;20485;-62
2024/01/10 11:10:13;;;;;;;17.23;16.63;;;20.20;38.50;;;;;;5031787;28;20445;-63
2024/01/10 11:12:59;;;;;;;16.90;16.30;;;20.20;38.40;;;;;;5016812;28;20445;-63
2024/01/10 11:15:49;;;;;;;17.70;17.00;;;20.20;38.40;;;;;;5031580;28;20491;-62
2024/01/10 11:18:39;;;;;;;16.90;16.30;;;20.20;38.40;;;;;;5031370;28;20539;-64
2024/01/10 11:21:20;;;;;;;18.17;17.57;;;20.20;38.40;;;;;;5031393;28;20480;-65
2024/01/10 11:23:50;;;;;;;20.13;19.43;;;20.30;38.50;;;;;;5018400;28;20988;-64
2024/01/10 11:26:19;;;;;;;16.80;16.20;;;20.30;38.50;;;;;;5031290;28;21006;-64
2024/01/10 11:28:48;;;;;;;18.07;17.40;;;20.20;38.40;;;;;;5031367;28;20473;-65
2024/01/10 11:31:16;;;;;;;18.03;17.03;;;20.20;38.40;;;;;;5031278;28;20531;-63
2024/01/10 11:33:44;;;;;;;18.03;17.33;;;20.30;38.50;;;;;;5031171;28;20514;-64
2024/01/10 11:36:14;;;;;;;17.90;17.20;;;20.30;38.50;;;;;;5031198;28;20477;-64
2024/01/10 11:38:50;;;;;;;16.70;16.10;;;20.30;38.50;;;;;;5031332;28;20480;-64
2024/01/10 11:41:22;;;;;;;16.73;16.13;;;20.30;38.40;;;;;;5030944;28;20445;-64
2024/01/10 11:44:23;;;;;;;18.30;17.60;;;20.30;38.50;;;;;;5031310;28;20472;-64
2024/01/10 11:46:54;;;;;;;15.73;15.23;;;20.30;38.40;;;;;;5019154;28;20440;-65
2024/01/10 11:49:22;;;;;;;15.90;15.30;;;20.30;38.50;;;;;;5031923;28;20429;-65
2024/01/10 11:51:50;;;;;;;17.13;16.33;;;20.30;38.50;;;;;;5031590;28;20480;-66
2024/01/10 11:54:40;;;;;;;15.40;14.77;;;20.30;38.50;;;;;;5031493;28;20461;-65
2024/01/10 11:57:12;;;;;;;18.90;18.20;;;20.30;38.50;;;;;;5031410;28;20445;-63
2024/01/10 11:59:41;;;;;;;17.90;17.30;;;20.30;38.50;;;;;;5031254;28;20473;-64
2024/01/10 12:02:11;;;;;;;18.77;18.03;;;20.30;38.50;;;;;;5031060;28;20473;-64
2024/01/10 12:04:38;;;;;;;17.27;16.60;;;20.40;38.50;;;;;;5015026;28;21002;-64
2024/01/10 12:07:07;;;;;;;16.93;16.33;;;20.30;38.40;;;;;;5031099;28;20506;-64
2024/01/10 12:09:34;;;;;;;17.17;16.47;;;20.30;38.40;;;;;;5031078;28;20714;-63
2024/01/10 12:12:01;;;;;;;16.90;16.30;;;20.40;38.50;;;;;;5031071;28;20885;-62
2024/01/10 12:14:30;;;;;;;17.37;16.70;;;20.40;38.50;;;;;;5030796;28;20915;-65
2024/01/10 12:16:57;;;;;;;16.93;16.43;;;20.40;38.50;;;;;;5031069;28;20486;-63
2024/01/10 12:19:26;;;;;;;18.20;17.40;;;20.40;38.50;;;;;;5031006;28;20963;-67
2024/01/10 12:21:53;;;;;;;17.17;16.37;;;20.40;38.50;;;;;;5030860;28;20453;-64
2024/01/10 12:24:21;;;;;;;17.13;16.53;;;20.40;38.40;;;;;;5030763;28;20465;-64
2024/01/10 12:26:48;;;;;;;16.77;16.10;;;20.40;38.40;;;;;;5030905;28;20477;-63
2024/01/10 12:29:19;;;;;;;15.90;15.40;;;20.40;38.40;;;;;;5030846;28;20479;-65
2024/01/10 12:31:47;;;;;;;16.77;16.13;;;20.40;38.40;;;;;;5030842;28;20456;-63